Terminal Aerodrome Forecast
Issued by NWS Sterling, VA

Current Version | Previous Version | Text Only | Print | Product List | Glossary On
Versions: 1 2 3 4 5 6 7 8 9 10 11 12 13 14 15 16
000
FTUS41 KLWX 170500 RRA
TAFMRB
TAF
KMRB 170542Z 1706/1806 VRB03KT 1/4SM FG VV001
     FM171200 28008KT 3SM BR BKN025
     FM171400 28012G24KT P6SM SCT040
     FM172200 29011KT P6SM SCT100=

USA.gov is the U.S. government's official web portal to all federal, state and local government web resources and services.